FSIA/SEZ METAR and TAF weather

Enter ICAO airport designator
Station Type Date Time Source
FSIA METAR 2021/01/16 03:00 UTC NOAA

FSIA 160300Z 32010KT 9999 FEW017 27/24 Q1009 NOSIG


Station Type Date Time Source
FSIA Decoded METAR 2021/01/16 03:00 UTC NOAA

Seychelles Inter-National Airport, Seychelles (FSIA) 04-40S 055-31E 3M
Jan 15, 2021 - 10:00 PM EST / 2021.01.16 0300 UTC
Wind: from the NW (320 degrees) at 12 MPH (10 KT):0
Visibility: greater than 7 mile(s):0
Sky conditions: mostly clear
Temperature: 80 F (27 C)
Dew Point: 75 F (24 C)
Relative Humidity: 83%
Pressure (altimeter): 29.80 in. Hg (1009 hPa)
ob: FSIA 160300Z 32010KT 9999 FEW017 27/24 Q1009 NOSIG
cycle: 3

Station Type Date Time Source
FSIA TAF 2021/01/15 18:15 UTC NOAA

TAF FSIA 151703Z 1518/1618 VRB05KT 9999 SCT020
BECMG 1608/1610 30010G20KT

Example: see airport list